This is the latest recevied weather packets stored in our database for station/object Riedlingn. If no packets are shown the sender has not sent any weather packets the latest 10 day(s).
| Time | Temp. | Humidity | Pressure | Rain* | Wind** | Luminosity | Snow |
|---|---|---|---|---|---|---|---|
| 1788114730 | 22.78° C | 67% | 1019 hPa | 0 mm | - | - | - |
| 1788112931 | 23.89° C | 62% | 1018.9 hPa | 0 mm | - | - | - |
| 1788111130 | 25.56° C | 57% | 1018.7 hPa | 0 mm | - | - | - |
| 1788109331 | 26.11° C | 54% | 1018.6 hPa | 0 mm | - | - | - |
| 1788107531 | 26.11° C | 54% | 1018.7 hPa | 0 mm | - | - | - |
| 1788105731 | 25.56° C | 57% | 1018.8 hPa | 0 mm | - | - | - |
| 1788103931 | 26.11° C | 57% | 1019 hPa | 0 mm | - | - | - |
| 1788102130 | 25.56° C | 57% | 1019 hPa | 0 mm | - | - | - |
| 1788100331 | 25.56° C | 58% | 1019.1 hPa | 0 mm | - | - | - |
| 1788098531 | 26.11° C | 55% | 1019.2 hPa | 0 mm | - | - | - |
| 1788096730 | 25.56° C | 57% | 1019.3 hPa | 0 mm | - | - | - |
| 1788094931 | 25.56° C | 60% | 1019.6 hPa | 0 mm | - | - | - |
| 1788093130 | 25.56° C | 61% | 1019.8 hPa | 0 mm | - | - | - |
| 1788091330 | 25° C | 61% | 1020 hPa | 0 mm | - | - | - |
| 1788089530 | 23.33° C | 64% | 1020.2 hPa | 0 mm | - | - | - |
| 1788087732 | 24.44° C | 62% | 1020.5 hPa | 0 mm | - | - | - |
| 1788085930 | 23.89° C | 64% | 1020.7 hPa | 0 mm | - | - | - |
| 1788084129 | 23.33° C | 65% | 1021 hPa | 0 mm | - | - | - |
| 1788082330 | 22.78° C | 68% | 1021.2 hPa | 0 mm | - | - | - |
| 1788080530 | 21.67° C | 69% | 1021.4 hPa | 0 mm | - | - | - |
| 1788078729 | 21.11° C | 71% | 1021.4 hPa | 0 mm | - | - | - |
| 1788076929 | 20.56° C | 74% | 1021.5 hPa | 0 mm | - | - | - |
| 1788075130 | 19.44° C | 79% | 1021.5 hPa | 0 mm | - | - | - |
| 1788073329 | 18.33° C | 81% | 1021.5 hPa | 0 mm | - | - | - |
| 1788071530 | 17.22° C | 87% | 1021.4 hPa | 0 mm | - | - | - |
* Rain since midnight (hover to see other rain measurements)
** Current wind speed in m/s (hover to see current wind gust speed)